Map

Track Data

SID SEASON NUMBER BASIN SUBBASIN NAME ISO_TIME NATURE LAT LON WMO_WIND WMO_PRES WMO_AGENCY TRACK_TYPE DIST2LAND LANDFALL IFLAG USA_AGENCY USA_ATCF_ID USA_LAT USA_LON USA_RECORD USA_STATUS USA_WIND USA_PRES USA_SSHS USA_R34_NE USA_R34_SE USA_R34_SW USA_R34_NW USA_R50_NE USA_R50_SE USA_R50_SW USA_R50_NW USA_R64_NE USA_R64_SE USA_R64_SW USA_R64_NW USA_POCI USA_ROCI USA_RMW USA_EYE TOKYO_LAT TOKYO_LON TOKYO_GRADE TOKYO_WIND TOKYO_PRES TOKYO_R50_DIR TOKYO_R50_LONG TOKYO_R50_SHORT TOKYO_R30_DIR TOKYO_R30_LONG TOKYO_R30_SHORT TOKYO_LAND CMA_LAT CMA_LON CMA_CAT CMA_WIND CMA_PRES HKO_LAT HKO_LON HKO_CAT HKO_WIND HKO_PRES NEWDELHI_LAT NEWDELHI_LON NEWDELHI_GRADE NEWDELHI_WIND NEWDELHI_PRES NEWDELHI_CI NEWDELHI_DP NEWDELHI_POCI REUNION_LAT REUNION_LON REUNION_TYPE REUNION_WIND REUNION_PRES REUNION_TNUM REUNION_CI REUNION_RMW REUNION_R34_NE REUNION_R34_SE REUNION_R34_SW REUNION_R34_NW REUNION_R50_NE REUNION_R50_SE REUNION_R50_SW REUNION_R50_NW REUNION_R64_NE REUNION_R64_SE REUNION_R64_SW REUNION_R64_NW BOM_LAT BOM_LON BOM_TYPE BOM_WIND BOM_PRES BOM_TNUM BOM_CI BOM_RMW BOM_R34_NE BOM_R34_SE BOM_R34_SW BOM_R34_NW BOM_R50_NE BOM_R50_SE BOM_R50_SW BOM_R50_NW BOM_R64_NE BOM_R64_SE BOM_R64_SW BOM_R64_NW BOM_ROCI BOM_POCI BOM_EYE BOM_POS_METHOD BOM_PRES_METHOD NADI_LAT NADI_LON NADI_CAT NADI_WIND NADI_PRES WELLINGTON_LAT WELLINGTON_LON WELLINGTON_WIND WELLINGTON_PRES DS824_LAT DS824_LON DS824_STAGE DS824_WIND DS824_PRES TD9636_LAT TD9636_LON TD9636_STAGE TD9636_WIND TD9636_PRES TD9635_LAT TD9635_LON TD9635_WIND TD9635_PRES TD9635_ROCI NEUMANN_LAT NEUMANN_LON NEUMANN_CLASS NEUMANN_WIND NEUMANN_PRES MLC_LAT MLC_LON MLC_CLASS MLC_WIND MLC_PRES USA_GUST BOM_GUST BOM_GUST_PER REUNION_GUST REUNION_GUST_PER USA_SEAHGT USA_SEARAD_NE USA_SEARAD_SE USA_SEARAD_SW USA_SEARAD_NW STORM_SPEED STORM_DIR
1958250N18248 1958 78 EP MM NOT_NAMED 1958-09-06 12:00:00 TS 18.1000 -111.900 75 hurdat_epa main 572 565 O________OO___ hurdat_epa EP081958 18.1000 -111.900 HU 75 1 18.1000 -111.900 TC 75 18.1000 -111.900 4 7 295
1958250N18248 1958 78 EP MM NOT_NAMED 1958-09-06 15:00:00 TS 18.2551 -112.250 main 567 566 P________PP___ EP081958 18.2601 -112.250 HU 75 1 18.2601 -112.250 TC 75 18.2349 -112.251 4 7 294
1958250N18248 1958 78 EP MM NOT_NAMED 1958-09-06 18:00:00 TS 18.3931 -112.600 75 hurdat_epa main 571 571 O________OP___ hurdat_epa EP081958 18.4000 -112.600 HU 75 1 18.4000 -112.600 TC 75 18.3656 -112.602 4 7 291
1958250N18248 1958 78 EP MM NOT_NAMED 1958-09-06 21:00:00 TS 18.5036 -112.950 main 582 578 P________PP___ EP081958 18.5074 -112.950 HU 75 1 18.5074 -112.950 TC 75 18.4885 -112.952 4 7 287
1958250N18248 1958 78 EP MM NOT_NAMED 1958-09-07 00:00:00 TS 18.6000 -113.300 75 hurdat_epa main 590 590 O________OO___ hurdat_epa EP081958 18.6000 -113.300 HU 75 1 18.6000 -113.300 TC 75 18.6000 -113.300 4 7 287
1958250N18248 1958 78 EP MM NOT_NAMED 1958-09-07 03:00:00 TS 18.7054 -113.649 main 600 600 P________PP___ EP081958 18.7074 -113.650 HU 75 1 18.7074 -113.650 TC 75 18.6972 -113.646 4 7 286
1958250N18248 1958 78 EP MM NOT_NAMED 1958-09-07 06:00:00 TS 18.7959 -113.999 75 hurdat_epa main 618 618 O________OP___ hurdat_epa EP081958 18.8000 -114.000 HU 75 1 18.8000 -114.000 TC 75 18.7796 -113.993 4 7 283
1958250N18248 1958 78 EP MM NOT_NAMED 1958-09-07 09:00:00 TS 18.8554 -114.349 main 631 631 P________PP___ EP081958 18.8574 -114.350 HU 75 1 18.8574 -114.350 TC 75 18.8472 -114.343 4 7 279
1958250N18248 1958 78 EP MM NOT_NAMED 1958-09-07 12:00:00 TS 18.9000 -114.700 75 hurdat_epa main 661 661 O________OO___ hurdat_epa EP081958 18.9000 -114.700 HU 75 1 18.9000 -114.700 TC 75 18.9000 -114.700 4 7 278
1958250N18248 1958 78 EP MM NOT_NAMED 1958-09-07 15:00:00 TS 18.9546 -115.052 main 685 685 P________PP___ EP081958 18.9574 -115.042 HU 75 1 18.9574 -115.042 TC 75 18.9435 -115.088 4 7 278
1958250N18248 1958 78 EP MM NOT_NAMED 1958-09-07 18:00:00 TS 18.9945 -115.416 75 hurdat_epa main 710 710 O________OP___ hurdat_epa EP081958 19.0000 -115.400 HU 75 1 19.0000 -115.400 TC 75 18.9727 -115.480 4 7 274
1958250N18248 1958 78 EP MM NOT_NAMED 1958-09-07 21:00:00 TS 19.0042 -115.823 main 740 740 P________PP___ EP081958 19.0076 -115.815 HU 75 1 19.0076 -115.815 TC 75 18.9905 -115.857 4 7 270
1958250N18248 1958 78 EP MM NOT_NAMED 1958-09-08 00:00:00 TS 19.0000 -116.200 75 hurdat_epa main 764 764 O________OO___ hurdat_epa EP081958 19.0000 -116.200 HU 75 1 19.0000 -116.200 TC 75 19.0000 -116.200 4 6 270
1958250N18248 1958 78 EP MM NOT_NAMED 1958-09-08 03:00:00 TS 18.9996 -116.476 main 782 782 P________PP___ EP081958 18.9999 -116.472 HU 75 1 18.9999 -116.472 TC 75 18.9987 -116.490 4 5 270
1958250N18248 1958 78 EP MM NOT_NAMED 1958-09-08 06:00:00 TS 18.9984 -116.709 75 hurdat_epa main 794 794 O________OP___ hurdat_epa EP081958 19.0000 -116.700 HU 75 1 19.0000 -116.700 TC 75 18.9921 -116.745 4 5 269
1958250N18248 1958 78 EP MM NOT_NAMED 1958-09-08 09:00:00 TS 18.9919 -116.962 main 813 813 P________PP___ EP081958 18.9925 -116.958 HU 75 1 18.9925 -116.958 TC 75 18.9894 -116.978 4 5 270
1958250N18248 1958 78 EP MM NOT_NAMED 1958-09-08 12:00:00 TS 19.0000 -117.200 75 hurdat_epa main 826 826 O________OO___ hurdat_epa EP081958 19.0000 -117.200 HU 75 1 19.0000 -117.200 TC 75 19.0000 -117.200 4 4 277
1958250N18248 1958 78 EP MM NOT_NAMED 1958-09-08 15:00:00 TS 19.0427 -117.406 main 839 830 P________PP___ EP081958 19.0424 -117.400 HU 82 1 19.0424 -117.400 TC 82 19.0436 -117.428 4 4 284
1958250N18248 1958 78 EP MM NOT_NAMED 1958-09-08 18:00:00 TS 19.1000 -117.610 90 hurdat_epa main 844 844 O________OP___ hurdat_epa EP081958 19.1000 -117.600 HU 90 2 19.1000 -117.600 TC 90 19.0998 -117.650 4 4 285
1958250N18248 1958 78 EP MM NOT_NAMED 1958-09-08 21:00:00 TS 19.1572 -117.848 main 850 850 P________PP___ EP081958 19.1575 -117.842 HU 82 1 19.1575 -117.842 TC 82 19.1561 -117.872 4 5 282
1958250N18248 1958 78 EP MM NOT_NAMED 1958-09-09 00:00:00 TS 19.2000 -118.100 75 hurdat_epa main 871 871 O________OO___ hurdat_epa EP081958 19.2000 -118.100 HU 75 1 19.2000 -118.100 TC 75 19.2000 -118.100 4 5 276
1958250N18248 1958 78 EP MM NOT_NAMED 1958-09-09 03:00:00 TS 19.2097 -118.349 main 886 886 P________PP___ EP081958 19.2075 -118.350 HU 75 1 19.2075 -118.350 TC 75 19.2184 -118.347 4 5 271
1958250N18248 1958 78 EP MM NOT_NAMED 1958-09-09 06:00:00 TS 19.2045 -118.600 75 hurdat_epa main 909 909 O________OP___ hurdat_epa EP081958 19.2000 -118.600 HU 75 1 19.2000 -118.600 TC 75 19.2225 -118.600 4 5 270
1958250N18248 1958 78 EP MM NOT_NAMED 1958-09-09 09:00:00 TS 19.2090 -118.851 main 931 931 P________PP___ EP081958 19.2075 -118.850 HU 75 1 19.2075 -118.850 TC 75 19.2153 -118.853 4 5 269
1958250N18248 1958 78 EP MM NOT_NAMED 1958-09-09 12:00:00 TS 19.2000 -119.100 75 hurdat_epa main 947 947 O________OO___ hurdat_epa EP081958 19.2000 -119.100 HU 75 1 19.2000 -119.100 TC 75 19.2000 -119.100 4 5 264
1958250N18248 1958 78 EP MM NOT_NAMED 1958-09-09 15:00:00 TS 19.1564 -119.352 main 970 970 P________PP___ EP081958 19.1500 -119.358 HU 75 1 19.1500 -119.358 TC 75 19.1820 -119.328 4 5 259
1958250N18248 1958 78 EP MM NOT_NAMED 1958-09-09 18:00:00 TS 19.1115 -119.590 75 hurdat_epa main 993 993 O________OP___ hurdat_epa EP081958 19.1000 -119.600 HU 75 1 19.1000 -119.600 TC 75 19.1573 -119.550 4 4 262
1958250N18248 1958 78 EP MM NOT_NAMED 1958-09-09 21:00:00 TS 19.0997 -119.794 main 1009 1009 P________PP___ EP081958 19.0924 -119.800 HU 75 1 19.0924 -119.800 TC 75 19.1289 -119.772 4 4 268
1958250N18248 1958 78 EP MM NOT_NAMED 1958-09-10 00:00:00 TS 19.1000 -120.000 75 hurdat_epa main 1025 1025 O________OO___ hurdat_epa EP081958 19.1000 -120.000 HU 75 1 19.1000 -120.000 TC 75 19.1000 -120.000 4 4 270
1958250N18248 1958 78 EP MM NOT_NAMED 1958-09-10 03:00:00 TS 19.1018 -120.241 main 1041 1041 P________PP___ EP081958 19.1075 -120.242 HU 75 1 19.1075 -120.242 TC 75 19.0789 -120.235 4 5 269
1958250N18248 1958 78 EP MM NOT_NAMED 1958-09-10 06:00:00 TS 19.0915 -120.495 75 hurdat_epa main 1066 1066 O________OP___ hurdat_epa EP081958 19.1000 -120.500 HU 75 1 19.1000 -120.500 TC 75 19.0573 -120.477 4 5 264
1958250N18248 1958 78 EP MM NOT_NAMED 1958-09-10 09:00:00 TS 19.0524 -120.740 main 1083 1083 P________PP___ EP081958 19.0574 -120.743 HU 75 1 19.0574 -120.743 TC 75 19.0320 -120.731 4 5 259
1958250N18248 1958 78 EP MM NOT_NAMED 1958-09-10 12:00:00 TS 19.0000 -121.000 75 hurdat_epa main 1114 1114 O________OO___ hurdat_epa EP081958 19.0000 -121.000 HU 75 1 19.0000 -121.000 TC 75 19.0000 -121.000 4 5 259
1958250N18248 1958 78 EP MM NOT_NAMED 1958-09-10 15:00:00 TS 18.9530 -121.287 main 1140 1140 P________PP___ EP081958 18.9500 -121.292 HU 75 1 18.9500 -121.292 TC 75 18.9650 -121.265 4 6 260
1958250N18248 1958 78 EP MM NOT_NAMED 1958-09-10 18:00:00 TS 18.9044 -121.589 75 hurdat_epa main 1172 1172 O________OP___ hurdat_epa EP081958 18.9000 -121.600 HU 75 1 18.9000 -121.600 TC 75 18.9220 -121.547 4 6 260
1958250N18248 1958 78 EP MM NOT_NAMED 1958-09-10 21:00:00 TS 18.8595 -121.873 main 1197 1197 P________PP___ EP081958 18.8573 -121.877 HU 75 1 18.8573 -121.877 TC 75 18.8680 -121.856 4 6 260
1958250N18248 1958 78 EP MM NOT_NAMED 1958-09-11 00:00:00 TS 18.8000 -122.200 75 hurdat_epa main 1230 1230 O________OO___ hurdat_epa EP081958 18.8000 -122.200 HU 75 1 18.8000 -122.200 TC 75 18.8000 -122.200 4 7 258
1958250N18248 1958 78 EP MM NOT_NAMED 1958-09-11 03:00:00 TS 18.7082 -122.627 main 1266 1266 P________PP___ EP081958 18.7076 -122.635 HU 75 1 18.7076 -122.635 TC 75 18.7104 -122.593 4 9 257
1958250N18248 1958 78 EP MM NOT_NAMED 1958-09-11 06:00:00 TS 18.6015 -123.084 75 hurdat_epa main 1309 1309 O________OP___ hurdat_epa EP081958 18.6000 -123.100 HU 75 1 18.6000 -123.100 TC 75 18.6077 -123.020 4 9 256
1958250N18248 1958 78 EP MM NOT_NAMED 1958-09-11 09:00:00 TS 18.5001 -123.498 main 1345 1345 P________PP___ EP081958 18.4999 -123.507 HU 75 1 18.4999 -123.507 TC 75 18.5010 -123.462 4 8 255
1958250N18248 1958 78 EP MM NOT_NAMED 1958-09-11 12:00:00 TS 18.4000 -123.900 75 hurdat_epa main 1380 1380 O________OO___ hurdat_epa EP081958 18.4000 -123.900 HU 75 1 18.4000 -123.900 TC 75 18.4000 -123.900 4 8 255
1958250N18248 1958 78 EP MM NOT_NAMED 1958-09-11 15:00:00 TS 18.2958 -124.303 main 1416 1416 P________PP___ EP081958 18.2924 -124.300 HU 75 1 18.2924 -124.300 TC 75 18.3095 -124.315 4 8 256
1958250N18248 1958 78 EP MM NOT_NAMED 1958-09-11 18:00:00 TS 18.2055 -124.704 75 hurdat_epa main 1452 1452 O________OP___ hurdat_epa EP081958 18.2000 -124.700 HU 75 1 18.2000 -124.700 TC 75 18.2273 -124.722 4 8 259
1958250N18248 1958 78 EP MM NOT_NAMED 1958-09-11 21:00:00 TS 18.1453 -125.110 main 1488 1488 P________PP___ EP081958 18.1425 -125.107 HU 75 1 18.1425 -125.107 TC 75 18.1564 -125.118 4 8 262
1958250N18248 1958 78 EP MM NOT_NAMED 1958-09-12 00:00:00 TS 18.1000 -125.500 75 hurdat_epa main 1517 1517 O________OO___ hurdat_epa EP081958 18.1000 -125.500 HU 75 1 18.1000 -125.500 TC 75 18.1000 -125.500 4 7 262
1958250N18248 1958 78 EP MM NOT_NAMED 1958-09-12 03:00:00 TS 18.0492 -125.860 main 1554 1554 P________PP___ EP081958 18.0424 -125.858 HU 75 1 18.0424 -125.858 TC 75 18.0766 -125.872 4 7 263
1958250N18248 1958 78 EP MM NOT_NAMED 1958-09-12 06:00:00 TS 18.0129 -126.206 75 hurdat_epa main 1576 1576 O________OP___ hurdat_epa EP081958 18.0000 -126.200 HU 75 1 18.0000 -126.200 TC 75 18.0647 -126.229 4 7 267
1958250N18248 1958 78 EP MM NOT_NAMED 1958-09-12 09:00:00 TS 18.0151 -126.560 main 1606 1606 P________PP___ EP081958 18.0075 -126.557 HU 75 1 18.0075 -126.557 TC 75 18.0455 -126.572 4 7 269
1958250N18248 1958 78 EP MM NOT_NAMED 1958-09-12 12:00:00 TS 18.0000 -126.900 75 hurdat_epa main 1629 1629 O________OO___ hurdat_epa EP081958 18.0000 -126.900 HU 75 1 18.0000 -126.900 TC 75 18.0000 -126.900 4 6 261
1958250N18248 1958 78 EP MM NOT_NAMED 1958-09-12 15:00:00 TS 17.9208 -127.209 main 1660 1660 P________PP___ EP081958 17.9224 -127.208 HU 75 1 17.9224 -127.208 TC 75 17.9146 -127.214 4 6 251
1958250N18248 1958 78 EP MM NOT_NAMED 1958-09-12 18:00:00 TS 17.7991 -127.503 75 hurdat_epa main 1690 1690 O________OP___ hurdat_epa EP081958 17.8000 -127.500 HU 75 1 17.8000 -127.500 TC 75 17.7953 -127.516 4 6 245
1958250N18248 1958 78 EP MM NOT_NAMED 1958-09-12 21:00:00 TS 17.6548 -127.800 main 1721 1721 P________PP___ EP081958 17.6551 -127.798 HU 75 1 17.6551 -127.798 TC 75 17.6534 -127.810 4 6 242
1958250N18248 1958 78 EP MM NOT_NAMED 1958-09-13 00:00:00 TS 17.5000 -128.100 75 hurdat_epa main 1760 O________OO___ hurdat_epa EP081958 17.5000 -128.100 HU 75 1 17.5000 -128.100 TC 75 17.5000 -128.100 4 7 241

About IBTrACS Database

This database is a web-friendly format of International Best Track Archive for Climate Stewardship (IBTrACS), a global best track data archive curated by NOAA dating back to 1842.

Updated: 2021-10-25